createdAt,value
2023-07-19T00:00:02.249Z,15.25
2023-07-19T00:01:02.211Z,15.31
2023-07-19T00:02:02.208Z,15.31
2023-07-19T00:03:02.195Z,15.27
2023-07-19T00:04:02.131Z,15.40
2023-07-19T00:05:02.088Z,15.40
2023-07-19T00:06:02.018Z,15.37
2023-07-19T00:07:02.021Z,15.49
2023-07-19T00:08:01.954Z,15.51
2023-07-19T00:09:01.902Z,15.51
2023-07-19T00:10:01.871Z,15.56
2023-07-19T00:11:01.850Z,15.46
2023-07-19T00:12:01.787Z,15.51
2023-07-19T00:13:01.758Z,15.49
2023-07-19T00:14:01.717Z,15.49
2023-07-19T00:15:01.669Z,15.51
2023-07-19T00:16:01.719Z,15.43
2023-07-19T00:17:01.600Z,15.37
2023-07-19T00:18:01.608Z,15.33
2023-07-19T00:19:18.135Z,15.33
2023-07-19T00:20:01.479Z,15.27
2023-07-19T00:21:01.452Z,15.22
2023-07-19T00:22:01.417Z,15.30
2023-07-19T00:23:01.408Z,15.25
2023-07-19T00:24:01.335Z,15.19
2023-07-19T00:25:01.293Z,15.13
2023-07-19T00:26:01.251Z,15.18
2023-07-19T00:27:01.213Z,15.16
2023-07-19T00:28:01.190Z,15.03
2023-07-19T00:29:01.138Z,15.05
2023-07-19T00:30:01.126Z,15.07
2023-07-19T00:31:01.069Z,14.94
2023-07-19T00:32:01.037Z,15.03
2023-07-19T00:33:01.051Z,14.97
2023-07-19T00:34:01.009Z,15.09
2023-07-19T00:35:00.908Z,15.09
2023-07-19T00:36:00.888Z,15.13
2023-07-19T00:37:00.827Z,15.09
2023-07-19T00:38:00.812Z,15.03
2023-07-19T00:39:00.753Z,15.11
2023-07-19T00:40:00.738Z,15.15
2023-07-19T00:41:00.716Z,15.19
2023-07-19T00:42:00.649Z,15.15
2023-07-19T00:43:00.608Z,15.19
2023-07-19T00:44:00.577Z,15.12
2023-07-19T00:45:00.531Z,15.12
2023-07-19T00:46:00.540Z,15.09
2023-07-19T00:47:00.486Z,15.01
2023-07-19T00:48:00.465Z,15.03
2023-07-19T00:49:00.369Z,15.01
2023-07-19T00:50:00.354Z,15.03
2023-07-19T00:51:00.311Z,15.00
2023-07-19T00:52:00.265Z,14.95
2023-07-19T00:53:00.224Z,14.93
2023-07-19T00:54:00.205Z,14.97
2023-07-19T00:55:00.146Z,14.94
2023-07-19T00:56:00.134Z,14.97
2023-07-19T00:57:00.067Z,14.95
2023-07-19T00:58:00.033Z,14.98
2023-07-19T01:53:37.711Z,14.17
2023-07-19T01:54:37.642Z,14.09
2023-07-19T01:55:37.598Z,14.11
2023-07-19T01:56:37.581Z,14.11
2023-07-19T01:57:37.534Z,14.05
2023-07-19T01:58:37.517Z,14.19
2023-07-19T01:59:37.454Z,14.17
2023-07-19T02:00:37.415Z,14.17
2023-07-19T02:01:37.485Z,13.98
2023-07-19T02:02:37.480Z,14.11
2023-07-19T02:03:37.287Z,14.11
2023-07-19T02:04:37.314Z,14.09
2023-07-19T02:05:37.246Z,14.08
2023-07-19T02:06:37.182Z,14.06
2023-07-19T02:07:37.136Z,14.06
2023-07-19T02:08:37.105Z,13.99
2023-07-19T02:09:37.054Z,14.01
2023-07-19T02:10:37.020Z,14.02
2023-07-19T02:11:37.047Z,13.87
2023-07-19T02:12:36.967Z,14.04
2023-07-19T02:13:36.896Z,13.94
2023-07-19T02:14:36.867Z,13.99
2023-07-19T02:15:36.858Z,14.02
2023-07-19T02:16:36.791Z,13.93
2023-07-19T02:17:36.803Z,14.01
2023-07-19T02:18:36.713Z,13.86
2023-07-19T02:19:36.667Z,14.01
2023-07-19T02:20:36.634Z,14.02
2023-07-19T02:21:36.595Z,13.96
2023-07-19T02:22:36.665Z,13.96
2023-07-19T02:23:36.574Z,13.90
2023-07-19T02:24:36.483Z,14.01
2023-07-19T02:25:36.439Z,14.02
2023-07-19T02:26:36.396Z,13.96
2023-07-19T02:27:36.365Z,13.88
2023-07-19T02:28:36.316Z,14.02
2023-07-19T02:29:36.311Z,13.91
2023-07-19T02:30:36.244Z,14.06
2023-07-19T02:31:36.227Z,13.84
2023-07-19T02:32:36.186Z,13.91
2023-07-19T02:33:36.128Z,14.04
2023-07-19T02:34:36.130Z,13.98
2023-07-19T02:35:36.070Z,14.05
2023-07-19T02:36:36.017Z,13.98
2023-07-19T02:37:35.982Z,13.93
2023-07-19T02:38:35.945Z,13.94
2023-07-19T02:39:35.901Z,13.99
2023-07-19T02:40:35.857Z,13.90
2023-07-19T02:41:35.820Z,13.90
2023-07-19T02:42:35.772Z,13.84
2023-07-19T02:43:35.746Z,13.87
2023-07-19T02:44:35.711Z,13.87
2023-07-19T02:45:35.731Z,13.81
2023-07-19T02:46:35.701Z,13.80
2023-07-19T02:47:35.633Z,13.81
2023-07-19T02:48:35.564Z,13.86
2023-07-19T02:49:37.053Z,13.84
2023-07-19T02:50:35.493Z,13.84
2023-07-19T02:51:35.438Z,13.72
2023-07-19T02:52:35.390Z,13.83
2023-07-19T02:53:35.350Z,13.83
2023-07-19T02:54:35.307Z,13.83
2023-07-19T02:55:35.283Z,13.94
2023-07-19T02:56:35.231Z,13.90
2023-07-19T02:57:35.208Z,14.11
2023-07-19T02:58:35.169Z,14.04
2023-07-19T02:59:35.128Z,14.02
2023-07-19T03:00:35.096Z,14.09
2023-07-19T03:01:35.088Z,14.04
2023-07-19T03:02:35.085Z,14.09
2023-07-19T03:03:35.081Z,14.12
2023-07-19T03:04:34.967Z,14.08
2023-07-19T03:05:34.919Z,14.06
2023-07-19T03:06:34.895Z,14.19
2023-07-19T03:07:34.827Z,14.06
2023-07-19T03:08:34.770Z,14.11
2023-07-19T03:09:34.754Z,14.19
2023-07-19T03:10:34.738Z,14.11
2023-07-19T03:11:34.681Z,14.21
2023-07-19T03:12:34.614Z,14.24
2023-07-19T03:13:34.577Z,14.19
2023-07-19T03:14:34.542Z,14.21
2023-07-19T03:15:34.575Z,14.24
2023-07-19T03:16:34.507Z,14.19
2023-07-19T03:17:34.449Z,14.29
2023-07-19T03:18:34.371Z,14.29
2023-07-19T03:19:34.349Z,14.30
2023-07-19T03:20:34.296Z,14.23
2023-07-19T03:21:34.274Z,14.27
2023-07-19T03:22:34.266Z,14.41
2023-07-19T03:23:34.209Z,14.30
2023-07-19T03:24:34.145Z,14.30
2023-07-19T03:25:34.109Z,14.31
2023-07-19T03:26:34.085Z,14.24
2023-07-19T03:27:34.048Z,14.19
2023-07-19T03:28:34.041Z,14.21
2023-07-19T03:29:33.961Z,14.19
2023-07-19T03:30:34.017Z,14.12
2023-07-19T03:31:33.873Z,14.13
2023-07-19T03:32:33.898Z,14.17
2023-07-19T03:33:33.808Z,14.16
2023-07-19T03:34:33.783Z,14.23
2023-07-19T03:35:33.742Z,14.23
2023-07-19T03:36:33.681Z,14.16
2023-07-19T03:37:33.639Z,14.20
2023-07-19T03:38:33.623Z,14.12
2023-07-19T03:39:33.576Z,14.19
2023-07-19T03:40:33.539Z,14.21
2023-07-19T03:41:33.513Z,14.20
2023-07-19T03:42:33.451Z,14.26
2023-07-19T03:43:33.414Z,14.21
2023-07-19T03:44:33.367Z,14.17
2023-07-19T03:45:33.344Z,14.17
2023-07-19T03:46:33.343Z,14.27
2023-07-19T03:47:33.319Z,14.24
2023-07-19T03:48:33.225Z,14.24
2023-07-19T03:49:33.251Z,14.31
2023-07-19T03:50:33.151Z,14.26
2023-07-19T03:51:33.107Z,14.35
2023-07-19T03:52:33.074Z,14.39
2023-07-19T03:53:33.048Z,14.34
2023-07-19T03:54:33.009Z,14.44
2023-07-19T03:55:32.955Z,14.41
2023-07-19T03:56:32.905Z,14.49
2023-07-19T03:57:32.907Z,14.45
2023-07-19T03:58:32.847Z,14.56
2023-07-19T03:59:32.815Z,14.63
2023-07-19T04:00:32.758Z,14.59
2023-07-19T04:01:32.723Z,14.61
2023-07-19T04:02:32.702Z,14.72
2023-07-19T04:03:32.671Z,14.64
2023-07-19T04:04:32.644Z,14.71
2023-07-19T04:05:32.566Z,14.64
2023-07-19T04:06:32.534Z,14.80
2023-07-19T04:07:32.485Z,14.69
2023-07-19T04:08:32.443Z,14.95
2023-07-19T04:09:32.423Z,14.79
2023-07-19T04:10:32.424Z,14.86
2023-07-19T04:11:32.436Z,14.87
2023-07-19T04:12:32.304Z,14.93
2023-07-19T04:13:32.257Z,14.98
2023-07-19T04:14:32.223Z,15.03
2023-07-19T04:15:32.198Z,14.98
2023-07-19T04:16:32.210Z,15.07
2023-07-19T04:17:32.183Z,15.20
2023-07-19T04:18:32.072Z,15.25
2023-07-19T04:19:32.042Z,15.31
2023-07-19T04:20:31.998Z,15.27
2023-07-19T04:21:31.958Z,15.30
2023-07-19T04:22:31.948Z,15.40
2023-07-19T04:23:31.877Z,15.37
2023-07-19T04:24:31.844Z,15.37
2023-07-19T04:25:31.810Z,15.43
2023-07-19T04:26:31.765Z,15.48
2023-07-19T04:27:31.734Z,15.44
2023-07-19T04:28:31.685Z,15.62
2023-07-19T04:29:31.646Z,15.58
2023-07-19T04:30:31.608Z,15.60
2023-07-19T04:31:31.592Z,15.60
2023-07-19T04:32:31.590Z,15.59
2023-07-19T04:33:31.579Z,15.60
2023-07-19T04:34:31.454Z,15.76
2023-07-19T04:35:31.433Z,15.70
2023-07-19T04:36:31.380Z,15.70
2023-07-19T04:37:31.373Z,15.78
2023-07-19T04:38:31.301Z,15.73
2023-07-19T04:39:31.276Z,15.71
2023-07-19T04:40:31.237Z,15.78
2023-07-19T04:41:31.198Z,15.70
2023-07-19T04:42:31.162Z,15.77
2023-07-19T04:43:31.138Z,15.74
2023-07-19T04:44:31.107Z,15.81
2023-07-19T04:45:31.038Z,15.84
2023-07-19T04:46:31.025Z,15.86
2023-07-19T04:47:31.007Z,15.85
2023-07-19T04:48:30.930Z,15.81
2023-07-19T04:49:30.916Z,15.91
2023-07-19T04:50:30.860Z,15.92
2023-07-19T04:51:30.816Z,15.89
2023-07-19T04:52:30.780Z,16.04
2023-07-19T04:53:30.753Z,16.06
2023-07-19T04:54:30.700Z,16.03
2023-07-19T04:55:30.692Z,16.11
2023-07-19T04:56:30.625Z,16.17
2023-07-19T04:57:30.589Z,16.18
2023-07-19T04:58:30.548Z,16.26
2023-07-19T04:59:30.511Z,16.18
2023-07-19T05:00:30.472Z,16.17
2023-07-19T05:01:30.466Z,16.16
2023-07-19T05:02:30.442Z,16.25
2023-07-19T05:03:30.368Z,16.27
2023-07-19T05:04:30.401Z,16.17
2023-07-19T05:05:30.347Z,16.34
2023-07-19T05:06:30.263Z,16.36
2023-07-19T05:07:30.214Z,16.51
2023-07-19T05:08:30.182Z,16.40
2023-07-19T05:09:30.142Z,16.37
2023-07-19T05:10:30.096Z,16.48
2023-07-19T05:11:30.063Z,16.40
2023-07-19T05:12:30.058Z,16.55
2023-07-19T05:13:29.993Z,16.57
2023-07-19T05:14:29.950Z,16.66
2023-07-19T05:15:29.927Z,16.59
2023-07-19T05:16:29.890Z,16.73
2023-07-19T05:17:29.859Z,16.78
2023-07-19T05:18:29.816Z,16.69
2023-07-19T05:19:29.763Z,16.82
2023-07-19T05:20:32.824Z,16.78
2023-07-19T05:21:29.702Z,17.02
2023-07-19T05:22:29.671Z,16.85
2023-07-19T05:23:29.620Z,17.00
2023-07-19T05:24:29.592Z,17.05
2023-07-19T05:25:29.554Z,17.02
2023-07-19T05:26:29.523Z,17.07
2023-07-19T05:27:29.474Z,17.12
2023-07-19T05:28:29.449Z,17.21
2023-07-19T05:29:29.406Z,17.25
2023-07-19T05:30:29.388Z,17.32
2023-07-19T05:31:29.366Z,17.42
2023-07-19T05:32:29.323Z,17.38
2023-07-19T05:33:29.249Z,17.39
2023-07-19T05:34:29.205Z,17.42
2023-07-19T05:35:29.187Z,17.47
2023-07-19T05:36:29.149Z,17.57
2023-07-19T05:37:29.103Z,17.53
2023-07-19T05:38:29.138Z,17.65
2023-07-19T05:39:29.031Z,17.70
2023-07-19T05:40:28.979Z,17.76
2023-07-19T05:41:28.951Z,17.70
2023-07-19T05:42:28.961Z,17.76
2023-07-19T05:43:28.890Z,17.92
2023-07-19T05:44:28.868Z,17.89
2023-07-19T05:45:28.854Z,17.92
2023-07-19T05:46:28.767Z,18.09
2023-07-19T05:47:30.934Z,18.11
2023-07-19T05:48:28.709Z,18.23
2023-07-19T05:49:28.663Z,18.35
2023-07-19T05:50:28.616Z,18.32
2023-07-19T05:51:28.590Z,18.41
2023-07-19T05:52:28.567Z,18.46
2023-07-19T05:53:28.508Z,18.47
2023-07-19T05:54:28.498Z,18.50
2023-07-19T05:55:28.434Z,18.46
2023-07-19T05:56:28.403Z,18.46
2023-07-19T05:57:28.365Z,18.53
2023-07-19T05:58:28.335Z,18.42
2023-07-19T05:59:28.288Z,18.42
2023-07-19T06:00:28.271Z,18.50
2023-07-19T06:01:32.303Z,18.57
2023-07-19T06:02:36.014Z,18.53
2023-07-19T06:03:28.425Z,18.42
2023-07-19T06:04:28.201Z,18.53
2023-07-19T06:05:28.105Z,18.65
2023-07-19T06:06:28.059Z,18.64
2023-07-19T06:07:28.008Z,18.65
2023-07-19T06:08:27.978Z,18.72
2023-07-19T06:09:27.927Z,18.78
2023-07-19T06:10:27.983Z,18.76
2023-07-19T06:11:27.976Z,18.87
2023-07-19T06:12:27.870Z,18.82
2023-07-19T06:13:27.848Z,18.75
2023-07-19T06:14:27.856Z,18.76
2023-07-19T06:15:27.758Z,18.75
2023-07-19T06:16:27.769Z,18.78
2023-07-19T06:17:27.690Z,18.68
2023-07-19T06:18:27.625Z,18.71
2023-07-19T06:19:28.405Z,18.60
2023-07-19T06:20:27.564Z,18.50
2023-07-19T06:21:27.497Z,18.42
2023-07-19T06:22:27.483Z,18.46
2023-07-19T06:23:27.499Z,18.39
2023-07-19T06:24:27.384Z,18.39
2023-07-19T06:25:27.357Z,18.35
2023-07-19T06:26:27.327Z,18.26
2023-07-19T06:27:27.299Z,18.32
2023-07-19T06:28:27.236Z,18.20
2023-07-19T06:29:27.213Z,18.25
2023-07-19T06:30:27.189Z,18.31
2023-07-19T06:31:27.192Z,18.21
2023-07-19T06:32:27.201Z,18.25
2023-07-19T06:33:27.076Z,18.21
2023-07-19T06:34:27.046Z,18.21
2023-07-19T06:35:26.989Z,18.26
2023-07-19T06:36:26.947Z,18.32
2023-07-19T06:37:26.914Z,18.35
2023-07-19T06:38:26.877Z,18.36
2023-07-19T06:39:26.856Z,18.50
2023-07-19T06:40:26.854Z,18.68
2023-07-19T06:41:26.785Z,18.69
2023-07-19T06:42:26.735Z,18.79
2023-07-19T06:43:26.698Z,18.91
2023-07-19T06:44:26.662Z,19.01
2023-07-19T06:45:26.646Z,19.09
2023-07-19T06:46:26.617Z,19.24
2023-07-19T06:47:26.603Z,19.28
2023-07-19T06:48:26.524Z,19.34
2023-07-19T06:49:26.483Z,19.39
2023-07-19T06:50:26.487Z,19.34
2023-07-19T06:51:26.409Z,19.39
2023-07-19T06:52:28.903Z,19.34
2023-07-19T06:53:26.351Z,19.21
2023-07-19T06:54:26.302Z,19.17
2023-07-19T06:55:26.276Z,19.20
2023-07-19T06:56:26.238Z,19.21
2023-07-19T06:57:26.196Z,19.23
2023-07-19T06:58:26.181Z,19.34
2023-07-19T06:59:26.121Z,19.39
2023-07-19T07:00:26.142Z,19.35
2023-07-19T07:01:26.107Z,19.45
2023-07-19T07:02:26.056Z,19.42
2023-07-19T07:03:26.189Z,19.60
2023-07-19T07:04:26.168Z,19.49
2023-07-19T07:05:26.016Z,19.70
2023-07-19T07:06:29.009Z,19.67
2023-07-19T07:07:25.887Z,19.68
2023-07-19T07:08:25.917Z,19.64
2023-07-19T07:09:25.859Z,19.70
2023-07-19T07:10:25.796Z,19.57
2023-07-19T07:11:25.717Z,19.65
2023-07-19T07:12:25.673Z,19.57
2023-07-19T07:13:25.621Z,19.55
2023-07-19T07:14:25.599Z,19.57
2023-07-19T07:15:25.559Z,19.71
2023-07-19T07:16:25.573Z,19.61
2023-07-19T07:17:25.516Z,19.55
2023-07-19T07:18:25.450Z,19.43
2023-07-19T07:19:25.431Z,19.43
2023-07-19T07:20:25.485Z,19.34
2023-07-19T07:21:25.367Z,19.31
2023-07-19T07:22:25.308Z,19.16
2023-07-19T07:23:25.303Z,19.13
2023-07-19T07:24:25.239Z,19.21
2023-07-19T07:25:25.197Z,19.20
2023-07-19T07:26:25.170Z,19.17
2023-07-19T07:27:25.129Z,19.23
2023-07-19T07:28:25.107Z,19.25
2023-07-19T07:29:25.070Z,19.21
2023-07-19T07:30:25.029Z,19.27
2023-07-19T07:31:25.304Z,19.30
2023-07-19T07:32:24.964Z,19.38
2023-07-19T07:33:24.913Z,19.38
2023-07-19T07:34:24.883Z,19.45
2023-07-19T07:35:24.861Z,19.43
2023-07-19T07:36:24.862Z,19.49
2023-07-19T07:37:24.786Z,19.50
2023-07-19T07:38:24.742Z,19.38
2023-07-19T07:39:24.716Z,19.45
2023-07-19T07:40:24.705Z,19.45
2023-07-19T07:41:24.771Z,19.30
2023-07-19T07:42:24.664Z,19.32
2023-07-19T07:43:24.554Z,19.23
2023-07-19T07:44:24.534Z,19.05
2023-07-19T07:45:24.490Z,18.93
2023-07-19T07:46:24.511Z,18.90
2023-07-19T07:47:24.462Z,18.83
2023-07-19T07:48:24.400Z,18.69
2023-07-19T07:49:33.348Z,18.59
2023-07-19T18:38:59.811Z,21.24
2023-07-19T18:39:41.397Z,21.22
2023-07-19T18:52:58.839Z,20.90
2023-07-19T18:53:00.032Z,20.88
2023-07-19T18:54:00.044Z,20.88
2023-07-19T18:55:00.035Z,20.90
2023-07-19T18:56:00.772Z,20.97
2023-07-19T18:56:59.887Z,20.90
2023-07-19T18:57:59.876Z,20.85
2023-07-19T18:58:59.810Z,20.91
2023-07-19T19:00:00.805Z,20.97
2023-07-19T19:00:59.778Z,20.87
2023-07-19T19:01:59.731Z,20.85
2023-07-19T19:03:00.420Z,20.82
2023-07-19T19:03:59.849Z,20.85
2023-07-19T19:04:59.602Z,20.75
2023-07-19T19:05:59.550Z,20.76
2023-07-19T19:06:59.552Z,20.83
2023-07-19T19:07:59.476Z,20.78
2023-07-19T19:09:00.259Z,20.85
2023-07-19T19:09:59.495Z,20.72
2023-07-19T19:13:41.029Z,20.76
2023-07-19T19:14:40.979Z,20.68
2023-07-19T19:15:40.940Z,20.64
2023-07-19T19:16:40.911Z,20.71
2023-07-19T19:17:40.902Z,20.63
2023-07-19T19:18:40.860Z,20.64
2023-07-19T19:19:40.775Z,20.53
2023-07-19T19:20:40.749Z,20.53
2023-07-19T19:21:40.809Z,20.57
2023-07-19T19:22:40.712Z,20.61
2023-07-19T19:23:40.646Z,20.42
2023-07-19T19:25:05.748Z,20.35
2023-07-19T19:25:40.584Z,20.35
2023-07-19T19:26:40.560Z,20.50
2023-07-19T19:27:40.499Z,20.35
2023-07-19T19:28:41.058Z,20.37
2023-07-19T19:29:40.438Z,20.30
2023-07-19T19:30:40.412Z,20.25
2023-07-19T19:31:40.350Z,20.22
2023-07-19T19:32:40.322Z,20.10
2023-07-19T19:33:40.271Z,20.20
2023-07-19T19:34:40.253Z,20.07
2023-07-19T19:35:40.223Z,20.02
2023-07-19T19:36:40.168Z,20.10
2023-07-19T19:37:40.132Z,20.01
2023-07-19T19:38:40.116Z,19.90
2023-07-19T19:39:40.086Z,19.86
2023-07-19T19:40:40.040Z,19.89
2023-07-19T19:41:39.988Z,19.83
2023-07-19T19:42:40.508Z,19.90
2023-07-19T19:43:39.922Z,19.90
2023-07-19T19:44:39.900Z,19.90
2023-07-19T19:45:39.847Z,19.86
2023-07-19T19:46:39.838Z,19.82
2023-07-19T19:47:39.782Z,19.82
2023-07-19T19:48:39.742Z,19.80
2023-07-19T19:49:39.703Z,19.85
2023-07-19T19:50:39.967Z,19.83
2023-07-19T19:51:39.626Z,19.83
2023-07-19T19:52:39.598Z,19.79
2023-07-19T19:53:39.561Z,19.82
2023-07-19T19:54:39.526Z,19.72
2023-07-19T19:56:39.494Z,19.76
2023-07-19T19:57:39.448Z,19.82
2023-07-19T19:58:39.376Z,19.82
2023-07-19T19:59:39.337Z,19.82
2023-07-19T20:00:39.327Z,19.75
2023-07-19T20:01:39.702Z,19.70
2023-07-19T20:02:39.256Z,19.72
2023-07-19T20:03:39.253Z,19.75
2023-07-19T20:04:39.242Z,19.71
2023-07-19T20:06:39.086Z,19.67
2023-07-19T20:07:39.068Z,19.72
2023-07-19T20:08:39.008Z,19.64
2023-07-19T20:09:51.283Z,19.61
2023-07-19T20:10:38.938Z,19.68
2023-07-19T20:11:38.902Z,19.72
2023-07-19T20:12:38.894Z,19.70
2023-07-19T20:13:38.830Z,19.72
2023-07-19T20:16:34.662Z,19.79
2023-07-19T20:17:34.590Z,19.71
2023-07-19T20:19:36.607Z,19.65
2023-07-19T20:20:34.448Z,19.71
2023-07-19T20:21:34.441Z,19.61
2023-07-19T20:22:34.407Z,19.79
2023-07-19T20:23:34.419Z,19.72
2023-07-19T20:24:39.241Z,19.71
2023-07-19T20:25:50.008Z,19.71
2023-07-19T20:26:37.184Z,19.61
2023-07-19T20:27:40.882Z,19.83
2023-07-19T20:28:34.180Z,19.62
2023-07-19T20:30:01.965Z,19.61
2023-07-19T20:30:44.423Z,19.49
2023-07-19T20:33:34.714Z,19.58
2023-07-19T20:34:34.520Z,19.67
2023-07-19T20:37:35.453Z,19.52
2023-07-19T20:44:06.663Z,19.38
2023-07-19T20:45:12.930Z,19.45
2023-07-19T20:46:08.323Z,19.43
2023-07-19T20:47:06.605Z,19.39
2023-07-19T20:48:06.539Z,19.38
2023-07-19T20:49:06.924Z,19.32
2023-07-19T20:50:06.509Z,19.47
2023-07-19T20:51:06.418Z,19.40
2023-07-19T20:52:06.375Z,19.43
2023-07-19T20:53:06.370Z,19.45
2023-07-19T20:54:06.303Z,19.35
2023-07-19T20:55:06.258Z,19.32
2023-07-19T20:56:06.238Z,19.25
2023-07-19T20:57:06.195Z,19.25
2023-07-19T20:58:06.154Z,19.28
2023-07-19T20:59:06.148Z,19.30
2023-07-19T21:00:06.083Z,19.35
2023-07-19T21:01:06.112Z,19.28
2023-07-19T21:02:06.115Z,19.27
2023-07-19T21:03:06.076Z,19.24
2023-07-19T21:04:05.937Z,19.16
2023-07-19T21:05:05.921Z,19.17
2023-07-19T21:06:05.878Z,19.12
2023-07-19T21:07:05.820Z,19.10
2023-07-19T21:08:05.819Z,19.05
2023-07-19T21:09:05.756Z,19.07
2023-07-19T21:10:05.723Z,19.05
2023-07-19T21:11:05.677Z,19.01
2023-07-19T21:12:05.653Z,18.97
2023-07-19T21:13:05.605Z,18.87
2023-07-19T21:14:05.617Z,18.87
2023-07-19T21:15:05.532Z,18.78
2023-07-19T21:16:05.555Z,18.86
2023-07-19T21:17:05.459Z,18.83
2023-07-19T21:18:05.420Z,18.83
2023-07-19T21:19:05.412Z,18.78
2023-07-19T21:20:05.376Z,18.76
2023-07-19T21:21:05.321Z,18.74
2023-07-19T21:22:05.282Z,18.72
2023-07-19T21:23:05.249Z,18.72
2023-07-19T21:24:05.329Z,18.74
2023-07-19T21:26:05.165Z,18.86
2023-07-19T21:27:05.089Z,18.69
2023-07-19T21:28:05.057Z,18.71
2023-07-19T21:29:05.018Z,18.72
2023-07-19T21:30:06.827Z,18.72
2023-07-19T21:31:05.063Z,18.64
2023-07-19T21:32:04.931Z,18.68
2023-07-19T21:33:04.901Z,18.56
2023-07-19T21:34:04.835Z,18.65
2023-07-19T21:35:04.795Z,18.51
2023-07-19T21:36:04.758Z,18.50
2023-07-19T21:37:04.720Z,18.51
2023-07-19T21:38:04.702Z,18.54
2023-07-19T21:39:04.661Z,18.56
2023-07-19T21:40:04.626Z,18.51
2023-07-19T21:41:04.579Z,18.50
2023-07-19T21:42:04.554Z,18.50
2023-07-19T21:43:04.510Z,18.41
2023-07-19T21:44:06.515Z,18.51
2023-07-19T21:45:04.431Z,18.41
2023-07-19T21:46:04.478Z,18.49
2023-07-19T21:47:04.361Z,18.51
2023-07-19T21:48:04.411Z,18.50
2023-07-19T21:49:04.282Z,18.47
2023-07-19T21:50:04.254Z,18.50
2023-07-19T21:51:04.197Z,18.57
2023-07-19T21:52:04.186Z,18.51
2023-07-19T21:53:04.147Z,18.46
2023-07-19T21:54:04.110Z,18.47
2023-07-19T21:55:04.064Z,18.51
2023-07-19T21:56:04.030Z,18.46
2023-07-19T21:57:03.988Z,18.44
2023-07-19T21:58:03.968Z,18.53
2023-07-19T21:59:03.915Z,18.51
2023-07-19T22:00:03.880Z,18.54
2023-07-19T22:01:03.932Z,18.56
2023-07-19T22:02:03.822Z,18.47
2023-07-19T22:03:03.885Z,18.51
2023-07-19T22:04:03.828Z,18.62
2023-07-19T22:05:03.703Z,18.54
2023-07-19T22:06:03.668Z,18.65
2023-07-19T22:07:03.635Z,18.57
2023-07-19T22:08:03.590Z,18.54
2023-07-19T22:09:03.556Z,18.64
2023-07-19T22:10:03.540Z,18.66
2023-07-19T22:11:03.503Z,18.64
2023-07-19T22:12:03.460Z,18.66
2023-07-19T22:13:03.407Z,18.59
2023-07-19T22:14:03.368Z,18.66
2023-07-19T22:15:08.571Z,18.65
2023-07-19T22:16:03.314Z,18.66
2023-07-19T22:17:03.260Z,18.65
2023-07-19T22:18:03.288Z,18.68
2023-07-19T22:19:03.187Z,18.65
2023-07-19T22:20:03.166Z,18.60
2023-07-19T22:21:19.767Z,18.65
2023-07-19T22:22:03.093Z,18.62
2023-07-19T22:23:03.057Z,18.72
2023-07-19T22:24:03.024Z,18.68
2023-07-19T22:25:02.975Z,18.69
2023-07-19T22:26:02.938Z,18.64
2023-07-19T22:27:02.890Z,18.65
2023-07-19T22:28:02.843Z,18.68
2023-07-19T22:29:02.812Z,18.68
2023-07-19T22:30:02.816Z,18.72
2023-07-19T22:31:02.812Z,18.71
2023-07-19T22:32:02.738Z,18.72
2023-07-19T22:33:02.752Z,18.65
2023-07-19T22:34:02.646Z,18.68
2023-07-19T22:35:02.608Z,18.68
2023-07-19T22:36:02.567Z,18.68
2023-07-19T22:37:02.523Z,18.65
2023-07-19T22:38:02.516Z,18.66
2023-07-19T22:39:02.437Z,18.60
2023-07-19T22:40:02.426Z,18.71
2023-07-19T22:41:02.374Z,18.71
2023-07-19T22:42:02.349Z,18.60
2023-07-19T22:43:02.308Z,18.62
2023-07-19T22:44:02.289Z,18.60
2023-07-19T22:45:02.273Z,18.65
2023-07-19T22:46:02.218Z,18.54
2023-07-19T22:47:02.237Z,18.49
2023-07-19T22:48:02.144Z,18.53
2023-07-19T22:49:02.078Z,18.54
2023-07-19T22:50:02.066Z,18.50
2023-07-19T22:51:02.010Z,18.54
2023-07-19T22:52:01.998Z,18.56
2023-07-19T22:53:01.951Z,18.51
2023-07-19T22:54:01.898Z,18.47
2023-07-19T22:55:01.865Z,18.53
2023-07-19T22:56:01.824Z,18.53
2023-07-19T22:57:01.815Z,18.47
2023-07-19T22:58:01.751Z,18.47
2023-07-19T22:59:01.714Z,18.34
2023-07-19T23:00:01.675Z,18.36
2023-07-19T23:01:01.697Z,18.25
2023-07-19T23:02:01.631Z,18.26
2023-07-19T23:03:01.616Z,18.26
2023-07-19T23:04:01.579Z,18.35
2023-07-19T23:05:01.501Z,18.16
2023-07-19T23:06:01.468Z,18.16
2023-07-19T23:07:01.451Z,18.05
2023-07-19T23:08:01.420Z,18.09
2023-07-19T23:09:01.363Z,18.05
2023-07-19T23:10:01.380Z,17.95
2023-07-19T23:11:01.338Z,17.91
2023-07-19T23:12:01.242Z,17.95
2023-07-19T23:13:01.214Z,17.79
2023-07-19T23:14:01.174Z,17.71
2023-07-19T23:15:01.143Z,17.74
2023-07-19T23:16:01.116Z,17.57
2023-07-19T23:17:01.136Z,17.55
2023-07-19T23:18:01.081Z,17.42
2023-07-19T23:19:00.978Z,17.51
2023-07-19T23:20:00.956Z,17.40
2023-07-19T23:21:00.911Z,17.33
2023-07-19T23:22:00.871Z,17.36
2023-07-19T23:23:01.027Z,17.15
2023-07-19T23:24:00.800Z,17.17
2023-07-19T23:25:00.780Z,17.28
2023-07-19T23:26:00.722Z,17.10
2023-07-19T23:27:00.688Z,17.15
2023-07-19T23:28:00.649Z,17.06
2023-07-19T23:29:00.638Z,17.10
2023-07-19T23:30:00.586Z,17.03
2023-07-19T23:31:00.573Z,17.07
2023-07-19T23:32:00.505Z,16.99
2023-07-19T23:33:00.498Z,16.91
2023-07-19T23:34:00.435Z,16.90
2023-07-19T23:35:00.400Z,16.85
2023-07-19T23:36:00.379Z,16.77
2023-07-19T23:37:00.335Z,16.92
2023-07-19T23:38:00.273Z,16.81
2023-07-19T23:39:00.290Z,16.78
2023-07-19T23:40:00.254Z,16.77
2023-07-19T23:41:00.197Z,16.66
2023-07-19T23:42:00.140Z,16.66
2023-07-19T23:43:00.085Z,16.73
2023-07-19T23:44:00.058Z,16.72
2023-07-19T23:45:00.028Z,16.70
2023-07-19T23:45:59.997Z,16.62
2023-07-19T23:46:59.934Z,16.54
2023-07-19T23:47:59.927Z,16.65
2023-07-19T23:48:59.856Z,16.54
2023-07-19T23:49:59.821Z,16.51
2023-07-19T23:50:59.783Z,16.54
2023-07-19T23:51:59.792Z,16.45
2023-07-19T23:52:59.736Z,16.42
2023-07-19T23:53:59.682Z,16.40
2023-07-19T23:54:59.654Z,16.36
2023-07-19T23:55:59.605Z,16.40
2023-07-19T23:56:59.583Z,16.30
2023-07-19T23:57:59.535Z,16.26
2023-07-19T23:58:59.481Z,16.29
2023-07-19T23:59:59.450Z,16.23
